Time;durP1;ratioP1;P1;durP2;ratioP2;P2;SDS_P1;SDS_P2;PMS_P1;PMS_P2;Temp;Humidity;BMP_temperature;BMP_pressure;BME280_temperature;BME280_humidity;BME280_pressure;Samples;Min_cycle;Max_cycle;Signal;HPM_P1;HPM_P2
2023/09/20 00:01:22;;;;;;;;;;;16.90;99.90;;;;;;5154822;27;19907;-43
2023/09/20 00:03:48;;;;;;;;;;;16.90;99.90;;;;;;5154781;27;19914;-44
2023/09/20 00:06:17;;;;;;;;;;;16.90;99.90;;;;;;5154703;27;19914;-45
2023/09/20 00:08:43;;;;;;;;;;;16.90;99.90;;;;;;5154822;27;20009;-45
2023/09/20 00:11:15;;;;;;;;;;;17.00;99.90;;;;;;5154588;27;19938;-45
2023/09/20 00:13:43;;;;;;;;;;;17.00;99.90;;;;;;5154345;27;20006;-44
2023/09/20 00:16:09;;;;;;;;;;;17.00;99.90;;;;;;5154697;27;20172;-44
2023/09/20 00:18:35;;;;;;;;;;;17.00;99.90;;;;;;5154263;27;19918;-45
2023/09/20 00:21:01;;;;;;;;;;;17.00;99.90;;;;;;5154696;27;19907;-44
2023/09/20 00:23:27;;;;;;;;;;;17.10;99.90;;;;;;5154612;27;19911;-44
2023/09/20 00:25:53;;;;;;;;;;;17.10;99.90;;;;;;5154840;27;19907;-44
2023/09/20 00:28:18;;;;;;;;;;;17.10;99.90;;;;;;5154435;27;19914;-44
2023/09/20 00:30:45;;;;;;;;;;;17.10;99.90;;;;;;5154598;27;19907;-44
2023/09/20 00:33:10;;;;;;;;;;;17.10;99.90;;;;;;5154046;27;19919;-44
2023/09/20 00:35:37;;;;;;;;;;;17.20;99.90;;;;;;5154621;27;20006;-43
2023/09/20 00:38:03;;;;;;;;;;;17.20;99.90;;;;;;5154494;27;19911;-43
2023/09/20 00:40:28;;;;;;;;;;;17.30;99.90;;;;;;5154452;27;20010;-45
2023/09/20 00:42:57;;;;;;;;;;;17.30;99.90;;;;;;5154470;27;19908;-43
2023/09/20 00:45:23;;;;;;;;;;;17.30;99.90;;;;;;5154286;27;19914;-44
2023/09/20 00:47:51;;;;;;;;;;;17.30;99.90;;;;;;5153737;27;20391;-44
2023/09/20 00:50:17;;;;;;;;;;;17.40;99.90;;;;;;5133495;27;19981;-44
2023/09/20 00:52:46;;;;;;;;;;;17.40;99.90;;;;;;5133654;28;20358;-44
2023/09/20 00:55:15;;;;;;;;;;;17.40;99.90;;;;;;5133613;28;19907;-44
2023/09/20 00:57:42;;;;;;;;;;;17.40;99.90;;;;;;5133636;28;19995;-44
2023/09/20 01:00:19;;;;;;;;;;;17.50;99.90;;;;;;5133451;28;19908;-43
2023/09/20 01:02:45;;;;;;;;;;;17.50;99.90;;;;;;5147132;27;19911;-45
2023/09/20 01:05:12;;;;;;;;;;;17.50;99.90;;;;;;5152771;27;20107;-44
2023/09/20 01:07:41;;;;;;;;;;;17.50;99.90;;;;;;5153926;27;19907;-46
2023/09/20 01:10:07;;;;;;;;;;;17.50;99.90;;;;;;5154194;27;19988;-45
2023/09/20 01:12:33;;;;;;;;;;;17.50;99.90;;;;;;5154029;27;20006;-46
2023/09/20 01:14:58;;;;;;;;;;;17.50;99.90;;;;;;5154026;27;19919;-45
2023/09/20 01:17:24;;;;;;;;;;;17.50;99.90;;;;;;5154079;27;19907;-45
2023/09/20 01:19:49;;;;;;;;;;;17.60;99.90;;;;;;5154141;27;19994;-44
2023/09/20 01:22:15;;;;;;;;;;;17.60;99.90;;;;;;5154005;27;20357;-44
2023/09/20 01:24:40;;;;;;;;;;;17.60;99.90;;;;;;5155801;27;19907;-44
2023/09/20 01:27:06;;;;;;;;;;;17.60;99.90;;;;;;5157897;27;19954;-45
2023/09/20 01:29:34;;;;;;;;;;;17.60;99.90;;;;;;5157978;27;20383;-44
2023/09/20 01:32:00;;;;;;;;;;;17.60;99.90;;;;;;5157509;27;20289;-44
2023/09/20 01:34:26;;;;;;;;;;;17.60;99.90;;;;;;5157668;27;20022;-45
2023/09/20 01:36:51;;;;;;;;;;;17.60;99.90;;;;;;5143061;27;20064;-44
2023/09/20 01:39:17;;;;;;;;;;;17.70;99.90;;;;;;5136964;27;19911;-43
2023/09/20 01:41:44;;;;;;;;;;;17.70;99.90;;;;;;5136866;27;19912;-43
2023/09/20 01:44:10;;;;;;;;;;;17.70;99.90;;;;;;5136707;27;20289;-44
2023/09/20 01:46:36;;;;;;;;;;;17.70;99.90;;;;;;5136831;27;19915;-44
2023/09/20 01:49:05;;;;;;;;;;;17.70;99.90;;;;;;5136948;27;19915;-45
2023/09/20 01:51:30;;;;;;;;;;;17.70;99.90;;;;;;5136868;27;19990;-43
2023/09/20 01:53:56;;;;;;;;;;;17.70;99.90;;;;;;5136620;27;20349;-44
2023/09/20 01:56:22;;;;;;;;;;;17.70;99.90;;;;;;5136561;27;19950;-43
2023/09/20 01:58:49;;;;;;;;;;;17.70;99.90;;;;;;5136632;27;19911;-45
2023/09/20 02:01:16;;;;;;;;;;;17.70;99.90;;;;;;5136456;27;19907;-44
2023/09/20 02:03:41;;;;;;;;;;;17.80;99.90;;;;;;5136568;27;20006;-43
2023/09/20 02:06:07;;;;;;;;;;;17.80;99.90;;;;;;5137081;27;19998;-45
2023/09/20 02:08:34;;;;;;;;;;;17.80;99.90;;;;;;5136453;27;19919;-45
2023/09/20 02:10:59;;;;;;;;;;;17.70;99.90;;;;;;5136286;27;19952;-44
2023/09/20 02:13:25;;;;;;;;;;;17.80;99.90;;;;;;5136519;27;19923;-44
2023/09/20 02:15:52;;;;;;;;;;;17.80;99.90;;;;;;5136282;27;20393;-44
2023/09/20 02:18:18;;;;;;;;;;;17.80;99.90;;;;;;5136236;27;19919;-44
2023/09/20 02:20:44;;;;;;;;;;;17.70;99.90;;;;;;5136292;27;19908;-44
2023/09/20 02:23:13;;;;;;;;;;;17.80;99.90;;;;;;5136170;27;19931;-44
2023/09/20 02:25:40;;;;;;;;;;;17.70;99.90;;;;;;5135967;27;19914;-45
2023/09/20 02:28:07;;;;;;;;;;;17.70;99.90;;;;;;5136042;27;19929;-44
2023/09/20 02:30:35;;;;;;;;;;;17.70;99.90;;;;;;5135967;27;19908;-44
2023/09/20 02:33:05;;;;;;;;;;;17.70;99.90;;;;;;5135720;27;19972;-45
2023/09/20 02:35:33;;;;;;;;;;;17.70;99.90;;;;;;5134631;27;20539;-44
2023/09/20 02:37:59;;;;;;;;;;;17.70;99.90;;;;;;5135760;27;19911;-45
2023/09/20 02:40:27;;;;;;;;;;;17.70;99.90;;;;;;5135717;27;19908;-44
2023/09/20 02:42:54;;;;;;;;;;;17.70;99.90;;;;;;5135910;27;19915;-44
2023/09/20 02:45:20;;;;;;;;;;;17.70;99.90;;;;;;5135565;27;20006;-44
2023/09/20 02:47:46;;;;;;;;;;;17.70;99.90;;;;;;5135930;27;19961;-43
2023/09/20 02:50:13;;;;;;;;;;;17.70;99.90;;;;;;5135537;27;19912;-43
2023/09/20 02:52:41;;;;;;;;;;;17.70;99.90;;;;;;5135483;27;19975;-44
2023/09/20 02:55:08;;;;;;;;;;;17.70;99.90;;;;;;5135339;27;19964;-44
2023/09/20 02:57:34;;;;;;;;;;;17.70;99.90;;;;;;5135465;27;20035;-44
2023/09/20 02:59:59;;;;;;;;;;;17.70;99.90;;;;;;5135477;27;19926;-44
2023/09/20 03:02:25;;;;;;;;;;;17.70;99.90;;;;;;5135268;27;20298;-45
2023/09/20 03:04:54;;;;;;;;;;;17.70;99.90;;;;;;5135626;27;20251;-44
2023/09/20 03:07:20;;;;;;;;;;;17.70;99.90;;;;;;5147907;27;19911;-45
2023/09/20 03:09:46;;;;;;;;;;;17.60;99.90;;;;;;5155888;27;19907;-44
2023/09/20 03:12:13;;;;;;;;;;;17.70;99.90;;;;;;5155860;27;19914;-44
2023/09/20 03:14:38;;;;;;;;;;;17.60;99.90;;;;;;5155472;27;19926;-44
2023/09/20 03:17:04;;;;;;;;;;;17.60;99.90;;;;;;5155878;27;20312;-45
2023/09/20 03:19:31;;;;;;;;;;;17.60;99.90;;;;;;5155934;27;19907;-45
2023/09/20 03:21:57;;;;;;;;;;;17.60;99.90;;;;;;5155630;27;19978;-44
2023/09/20 03:24:22;;;;;;;;;;;17.70;99.90;;;;;;5155660;27;19911;-44
2023/09/20 03:26:51;;;;;;;;;;;17.70;99.90;;;;;;5155682;27;19914;-44
2023/09/20 03:29:17;;;;;;;;;;;17.70;99.90;;;;;;5155498;27;19998;-45
2023/09/20 03:31:44;;;;;;;;;;;17.70;99.90;;;;;;5152656;27;19998;-45
2023/09/20 03:34:11;;;;;;;;;;;17.70;99.90;;;;;;5104744;28;19920;-44
2023/09/20 03:36:41;;;;;;;;;;;17.70;99.90;;;;;;5110026;27;19912;-45
2023/09/20 03:39:06;;;;;;;;;;;17.70;99.90;;;;;;5106940;28;20007;-45
2023/09/20 03:41:32;;;;;;;;;;;17.60;99.90;;;;;;5113831;28;19955;-45
2023/09/20 03:43:57;;;;;;;;;;;17.70;99.90;;;;;;5114018;28;20415;-46
2023/09/20 03:46:23;;;;;;;;;;;17.70;99.90;;;;;;5110205;28;19963;-45
2023/09/20 03:48:49;;;;;;;;;;;17.50;99.90;;;;;;5093254;28;19915;-45
2023/09/20 03:51:17;;;;;;;;;;;17.50;99.90;;;;;;5093555;28;20378;-45
2023/09/20 03:53:43;;;;;;;;;;;17.40;99.90;;;;;;5093425;28;20003;-44
2023/09/20 03:56:08;;;;;;;;;;;17.40;99.90;;;;;;5093406;28;20350;-45
2023/09/20 03:58:34;;;;;;;;;;;17.30;99.90;;;;;;5093547;28;19908;-45
2023/09/20 04:01:02;;;;;;;;;;;17.20;99.90;;;;;;5096028;28;20286;-44
2023/09/20 04:03:27;;;;;;;;;;;17.20;99.90;;;;;;5103393;28;20363;-46
2023/09/20 04:05:56;;;;;;;;;;;17.20;99.90;;;;;;5097240;28;19918;-45
2023/09/20 04:08:22;;;;;;;;;;;17.20;99.90;;;;;;5133674;27;19911;-44
2023/09/20 04:10:48;;;;;;;;;;;17.10;99.90;;;;;;5127721;27;20263;-45
2023/09/20 04:13:14;;;;;;;;;;;17.10;99.90;;;;;;5101956;28;20420;-44
2023/09/20 04:15:42;;;;;;;;;;;17.00;99.90;;;;;;5103430;28;19957;-45
2023/09/20 04:18:08;;;;;;;;;;;17.00;99.90;;;;;;5112677;28;19923;-46
2023/09/20 04:20:33;;;;;;;;;;;16.90;99.90;;;;;;5113365;28;19908;-44
2023/09/20 04:22:59;;;;;;;;;;;16.90;99.90;;;;;;5113649;28;19908;-45
2023/09/20 04:25:25;;;;;;;;;;;16.90;99.90;;;;;;5111270;28;20297;-45
2023/09/20 04:27:50;;;;;;;;;;;16.90;99.90;;;;;;5104073;28;19911;-46
2023/09/20 04:30:18;;;;;;;;;;;16.80;99.90;;;;;;5101896;28;19911;-45
2023/09/20 04:32:43;;;;;;;;;;;16.80;99.90;;;;;;5120125;27;19919;-45
2023/09/20 04:35:09;;;;;;;;;;;16.70;99.90;;;;;;5133746;28;19908;-45
2023/09/20 04:37:34;;;;;;;;;;;16.70;99.90;;;;;;5128792;27;19911;-45
2023/09/20 04:40:00;;;;;;;;;;;16.60;99.90;;;;;;5122230;28;19915;-45
2023/09/20 04:42:27;;;;;;;;;;;16.60;99.90;;;;;;5118824;28;20374;-45
2023/09/20 04:44:52;;;;;;;;;;;16.60;99.90;;;;;;5113217;28;19935;-44
2023/09/20 04:47:18;;;;;;;;;;;16.50;99.90;;;;;;5112935;28;20007;-46
2023/09/20 04:49:44;;;;;;;;;;;16.50;99.90;;;;;;5130628;28;19918;-44
2023/09/20 04:52:11;;;;;;;;;;;16.50;99.90;;;;;;5131770;28;20197;-44
2023/09/20 04:54:37;;;;;;;;;;;16.40;99.90;;;;;;5133366;28;20263;-44
2023/09/20 04:57:04;;;;;;;;;;;16.40;99.90;;;;;;5143198;27;19922;-45
2023/09/20 04:59:30;;;;;;;;;;;16.30;99.90;;;;;;5136995;27;19912;-44
2023/09/20 05:01:56;;;;;;;;;;;16.30;99.90;;;;;;5144585;27;19930;-44
2023/09/20 05:04:21;;;;;;;;;;;16.30;99.90;;;;;;5147393;27;20005;-44
2023/09/20 05:06:48;;;;;;;;;;;16.30;99.90;;;;;;5124685;27;19912;-45
2023/09/20 05:09:13;;;;;;;;;;;16.20;99.90;;;;;;5138098;27;19917;-45
2023/09/20 05:11:39;;;;;;;;;;;16.20;99.90;;;;;;5150425;27;19911;-45
2023/09/20 05:14:07;;;;;;;;;;;16.10;99.90;;;;;;5132155;27;19919;-44
2023/09/20 05:16:33;;;;;;;;;;;16.10;99.90;;;;;;5137176;27;20370;-45
2023/09/20 05:18:58;;;;;;;;;;;16.10;99.90;;;;;;5136963;27;19942;-45
2023/09/20 05:21:24;;;;;;;;;;;16.00;99.90;;;;;;5137252;27;19907;-46
2023/09/20 05:23:49;;;;;;;;;;;16.10;99.90;;;;;;5121446;27;19950;-44
2023/09/20 05:26:15;;;;;;;;;;;16.00;99.90;;;;;;5130980;27;19918;-45
2023/09/20 05:28:40;;;;;;;;;;;16.00;99.90;;;;;;5138127;27;19980;-45
2023/09/20 05:31:06;;;;;;;;;;;16.00;99.90;;;;;;5143312;27;19923;-45
2023/09/20 05:33:32;;;;;;;;;;;16.00;99.90;;;;;;5110948;27;20370;-44
2023/09/20 05:35:58;;;;;;;;;;;16.00;99.90;;;;;;5116444;27;20056;-45
2023/09/20 05:38:24;;;;;;;;;;;16.00;99.90;;;;;;5124460;27;19993;-44
2023/09/20 05:40:50;;;;;;;;;;;16.00;99.90;;;;;;5121170;27;19967;-44
2023/09/20 05:43:16;;;;;;;;;;;16.00;99.90;;;;;;5117011;27;20357;-44
2023/09/20 05:45:42;;;;;;;;;;;15.90;99.90;;;;;;5120903;27;19918;-45
2023/09/20 05:48:10;;;;;;;;;;;16.00;99.90;;;;;;5127547;27;20407;-45
2023/09/20 05:50:35;;;;;;;;;;;16.00;99.90;;;;;;5115957;28;20189;-44
2023/09/20 05:53:06;;;;;;;;;;;16.00;99.90;;;;;;5119920;27;20170;-44
2023/09/20 05:55:33;;;;;;;;;;;16.00;99.90;;;;;;5120432;27;20351;-45
2023/09/20 05:58:00;;;;;;;;;;;16.00;99.90;;;;;;5126018;27;19918;-45
2023/09/20 06:00:25;;;;;;;;;;;16.00;99.90;;;;;;5118967;27;19920;-45
2023/09/20 06:02:51;;;;;;;;;;;16.10;99.90;;;;;;5112068;27;19911;-44
2023/09/20 06:05:16;;;;;;;;;;;16.10;99.90;;;;;;5120230;27;20006;-46
2023/09/20 06:07:44;;;;;;;;;;;16.10;99.90;;;;;;5125055;27;19920;-44
2023/09/20 06:10:10;;;;;;;;;;;16.20;99.90;;;;;;5125332;27;20020;-45
2023/09/20 06:12:36;;;;;;;;;;;16.20;99.90;;;;;;5121065;27;19907;-46
2023/09/20 06:15:02;;;;;;;;;;;16.30;99.90;;;;;;5116300;27;19916;-46
2023/09/20 06:17:29;;;;;;;;;;;16.30;99.90;;;;;;5126865;27;20464;-44
2023/09/20 06:19:57;;;;;;;;;;;16.40;99.90;;;;;;5121231;27;19912;-44
2023/09/20 06:22:23;;;;;;;;;;;16.40;99.90;;;;;;5135717;27;19911;-47
2023/09/20 06:24:48;;;;;;;;;;;16.50;99.90;;;;;;5136021;27;19950;-45
2023/09/20 06:27:14;;;;;;;;;;;16.50;99.90;;;;;;5135773;27;20058;-45
2023/09/20 06:29:39;;;;;;;;;;;16.60;99.90;;;;;;5136308;27;19907;-45
2023/09/20 06:32:05;;;;;;;;;;;16.50;99.90;;;;;;5130207;27;20267;-45
2023/09/20 06:34:30;;;;;;;;;;;16.60;99.90;;;;;;5156437;27;19972;-45
2023/09/20 06:36:56;;;;;;;;;;;16.70;99.90;;;;;;5156181;27;19908;-45
2023/09/20 06:39:22;;;;;;;;;;;16.70;99.90;;;;;;5156439;27;19913;-47
2023/09/20 06:41:48;;;;;;;;;;;16.70;99.90;;;;;;5156247;27;20013;-45
2023/09/20 06:44:13;;;;;;;;;;;16.80;99.90;;;;;;5156269;27;19924;-46
2023/09/20 06:46:42;;;;;;;;;;;16.80;99.90;;;;;;5156359;27;20399;-44
2023/09/20 06:49:08;;;;;;;;;;;16.80;99.90;;;;;;5155888;27;19949;-44
2023/09/20 06:51:34;;;;;;;;;;;16.90;99.90;;;;;;5155646;27;19934;-45
2023/09/20 06:54:00;;;;;;;;;;;16.90;99.90;;;;;;5133917;27;20326;-46
2023/09/20 06:56:25;;;;;;;;;;;17.00;99.90;;;;;;5132895;27;19934;-44
2023/09/20 06:58:55;;;;;;;;;;;17.00;99.90;;;;;;5124025;27;19912;-44
2023/09/20 07:01:22;;;;;;;;;;;17.10;99.90;;;;;;5116395;27;19912;-44
2023/09/20 07:03:48;;;;;;;;;;;17.10;99.90;;;;;;5151497;27;20296;-43
2023/09/20 07:06:14;;;;;;;;;;;17.10;99.90;;;;;;5155643;27;19911;-43
2023/09/20 07:08:39;;;;;;;;;;;17.20;99.90;;;;;;5156306;27;20350;-44
2023/09/20 07:11:06;;;;;;;;;;;17.20;99.90;;;;;;5155367;27;19972;-45
2023/09/20 07:13:32;;;;;;;;;;;17.30;99.90;;;;;;5155723;27;19919;-45
2023/09/20 07:16:04;;;;;;;;;;;17.30;99.90;;;;;;5155682;27;19914;-45
2023/09/20 07:18:33;;;;;;;;;;;17.30;99.90;;;;;;5155578;27;19914;-45
2023/09/20 07:20:59;;;;;;;;;;;17.40;99.90;;;;;;5155705;27;19911;-44
2023/09/20 07:23:24;;;;;;;;;;;17.40;99.90;;;;;;5155395;27;20749;-45
2023/09/20 07:25:50;;;;;;;;;;;17.50;99.90;;;;;;5141262;27;20019;-45
2023/09/20 07:28:19;;;;;;;;;;;17.50;99.90;;;;;;5123414;27;19911;-45
2023/09/20 07:30:45;;;;;;;;;;;17.50;99.90;;;;;;5135467;27;19908;-45
2023/09/20 07:33:23;;;;;;;;;;;17.50;99.90;;;;;;5121867;27;20010;-46
2023/09/20 07:35:54;;;;;;;;;;;17.60;99.90;;;;;;5115080;28;19911;-44
2023/09/20 07:38:25;;;;;;;;;;;17.60;99.90;;;;;;5114790;28;19915;-44
2023/09/20 07:40:51;;;;;;;;;;;17.70;99.90;;;;;;5114782;28;19907;-44
2023/09/20 07:43:18;;;;;;;;;;;17.70;99.90;;;;;;5114724;28;20003;-45
2023/09/20 07:45:44;;;;;;;;;;;17.80;99.90;;;;;;5114758;28;20386;-44
2023/09/20 07:48:13;;;;;;;;;;;17.90;99.90;;;;;;5114247;28;19931;-45
2023/09/20 07:50:55;;;;;;;;;;;18.10;99.90;;;;;;5113917;28;19908;-45
2023/09/20 07:53:21;;;;;;;;;;;18.20;99.90;;;;;;5124655;27;19920;-44
2023/09/20 07:55:57;;;;;;;;;;;18.30;99.90;;;;;;5135321;27;19919;-45
2023/09/20 07:58:23;;;;;;;;;;;18.40;99.90;;;;;;5139789;27;20408;-44
2023/09/20 08:00:51;;;;;;;;;;;18.40;99.90;;;;;;5142073;27;19916;-44
2023/09/20 08:03:18;;;;;;;;;;;18.30;99.90;;;;;;5139470;27;19969;-43
2023/09/20 08:05:44;;;;;;;;;;;18.30;99.90;;;;;;5143252;27;19915;-44
2023/09/20 08:08:10;;;;;;;;;;;18.30;99.90;;;;;;5142268;27;20436;-44
2023/09/20 08:10:36;;;;;;;;;;;18.30;99.90;;;;;;5134863;27;20389;-46
2023/09/20 08:13:04;;;;;;;;;;;18.40;99.90;;;;;;5133736;27;19908;-45
2023/09/20 08:15:30;;;;;;;;;;;18.40;99.90;;;;;;5133927;27;19908;-44
2023/09/20 08:20:40;;;;;;;;;;;18.40;99.90;;;;;;5154403;27;19959;-45
2023/09/20 09:01:33;;;;;;;;;;;18.50;99.90;;;;;;5133561;28;20266;-46
2023/09/20 09:04:00;;;;;;;;;;;18.60;99.90;;;;;;5132899;28;20018;-44
2023/09/20 09:06:26;;;;;;;;;;;18.60;99.90;;;;;;5135577;27;19980;-44
2023/09/20 09:08:52;;;;;;;;;;;18.70;99.90;;;;;;5139531;27;20329;-44
2023/09/20 09:11:17;;;;;;;;;;;18.70;99.90;;;;;;5131857;28;19914;-44
2023/09/20 09:13:43;;;;;;;;;;;18.70;99.90;;;;;;5132802;28;20203;-45
2023/09/20 09:16:08;;;;;;;;;;;18.70;99.90;;;;;;5132399;27;19919;-44
2023/09/20 09:18:34;;;;;;;;;;;18.60;99.90;;;;;;5146329;27;19918;-45
2023/09/20 09:21:00;;;;;;;;;;;18.70;99.90;;;;;;5133125;28;19908;-44
2023/09/20 09:23:33;;;;;;;;;;;18.70;99.90;;;;;;5132499;27;19958;-46
2023/09/20 09:25:58;;;;;;;;;;;18.60;99.90;;;;;;5132390;28;20335;-45
2023/09/20 09:28:25;;;;;;;;;;;18.70;99.90;;;;;;5132811;27;19943;-44
2023/09/20 09:30:51;;;;;;;;;;;18.70;99.90;;;;;;5133037;28;20439;-45
2023/09/20 09:33:17;;;;;;;;;;;18.70;99.90;;;;;;5132582;27;19919;-44
2023/09/20 09:35:44;;;;;;;;;;;18.80;99.90;;;;;;5132866;28;19914;-44
2023/09/20 09:38:12;;;;;;;;;;;18.80;99.90;;;;;;5132231;27;19958;-44
2023/09/20 09:40:56;;;;;;;;;;;18.80;99.90;;;;;;5132724;28;19934;-44
2023/09/20 09:43:23;;;;;;;;;;;18.90;99.90;;;;;;5132725;28;19908;-44
2023/09/20 09:45:49;;;;;;;;;;;18.90;99.90;;;;;;5134407;27;20237;-45
2023/09/20 09:48:16;;;;;;;;;;;19.00;99.90;;;;;;5136538;27;19908;-46
2023/09/20 09:50:45;;;;;;;;;;;19.00;99.90;;;;;;5136512;27;19907;-45
2023/09/20 09:53:15;;;;;;;;;;;19.00;99.90;;;;;;5136312;27;20285;-44
2023/09/20 09:55:40;;;;;;;;;;;19.10;99.90;;;;;;5140503;27;19907;-44
2023/09/20 09:58:08;;;;;;;;;;;19.10;99.90;;;;;;5145309;27;20366;-45
2023/09/20 10:00:36;;;;;;;;;;;19.20;99.90;;;;;;5142104;27;19960;-44
2023/09/20 10:03:09;;;;;;;;;;;19.20;99.90;;;;;;5145562;27;19915;-44
2023/09/20 10:05:35;;;;;;;;;;;19.20;99.90;;;;;;5134232;27;19908;-44
2023/09/20 10:08:04;;;;;;;;;;;19.40;99.90;;;;;;5136137;27;19914;-44
2023/09/20 10:10:30;;;;;;;;;;;19.40;99.90;;;;;;5131289;27;20685;-45
2023/09/20 10:12:55;;;;;;;;;;;19.40;99.90;;;;;;5133665;27;20019;-44
2023/09/20 10:15:21;;;;;;;;;;;19.50;99.90;;;;;;5135026;27;19916;-46
2023/09/20 10:17:54;;;;;;;;;;;19.50;99.90;;;;;;5135776;27;20006;-44
2023/09/20 10:20:20;;;;;;;;;;;19.60;99.90;;;;;;5135057;27;20045;-47
2023/09/20 10:22:49;;;;;;;;;;;19.50;99.90;;;;;;5135554;27;20009;-45
2023/09/20 10:25:27;;;;;;;;;;;19.50;99.90;;;;;;5135368;27;19907;-44
2023/09/20 10:27:53;;;;;;;;;;;19.50;99.90;;;;;;5135558;27;19934;-44
2023/09/20 10:30:20;;;;;;;;;;;19.60;99.90;;;;;;5135123;27;19911;-44
2023/09/20 10:32:47;;;;;;;;;;;19.50;99.90;;;;;;5145819;27;19919;-44
2023/09/20 10:35:33;;;;;;;;;;;19.50;99.90;;;;;;5141232;27;19929;-45
2023/09/20 10:38:07;;;;;;;;;;;19.50;99.90;;;;;;5135881;27;19912;-44
2023/09/20 10:40:55;;;;;;;;;;;19.40;99.90;;;;;;5117931;27;20325;-45
2023/09/20 10:43:25;;;;;;;;;;;19.40;99.90;;;;;;5126242;27;19911;-44
2023/09/20 10:45:51;;;;;;;;;;;19.40;99.90;;;;;;5135014;27;19917;-44
2023/09/20 10:48:18;;;;;;;;;;;19.50;99.90;;;;;;5135223;27;20270;-44
2023/09/20 10:50:50;;;;;;;;;;;19.50;99.90;;;;;;5134726;27;19911;-44
2023/09/20 10:53:18;;;;;;;;;;;19.60;99.90;;;;;;5134607;27;19907;-44
2023/09/20 10:55:44;;;;;;;;;;;19.60;99.90;;;;;;5122117;27;19937;-45
2023/09/20 10:58:12;;;;;;;;;;;19.60;99.90;;;;;;5114416;28;19908;-45
2023/09/20 11:00:38;;;;;;;;;;;19.70;99.90;;;;;;5114561;28;20747;-45
2023/09/20 11:03:09;;;;;;;;;;;19.70;99.90;;;;;;5127844;27;20196;-44
2023/09/20 11:05:35;;;;;;;;;;;19.70;99.90;;;;;;5135552;27;19907;-46
2023/09/20 11:08:07;;;;;;;;;;;19.70;99.90;;;;;;5135498;27;19908;-44
2023/09/20 11:10:34;;;;;;;;;;;19.60;99.90;;;;;;5135643;27;19911;-46
2023/09/20 11:13:01;;;;;;;;;;;19.60;99.90;;;;;;5135401;27;19914;-45
2023/09/20 11:15:26;;;;;;;;;;;19.60;99.90;;;;;;5135384;27;19911;-46
2023/09/20 11:17:53;;;;;;;;;;;19.60;99.90;;;;;;5135613;27;19912;-44
2023/09/20 11:20:18;;;;;;;;;;;19.60;99.90;;;;;;5134366;27;20022;-45
2023/09/20 11:22:43;;;;;;;;;;;19.70;99.90;;;;;;5135075;27;20342;-44
2023/09/20 11:25:09;;;;;;;;;;;19.70;99.90;;;;;;5134325;27;19966;-45
2023/09/20 11:27:36;;;;;;;;;;;19.80;99.90;;;;;;5134579;27;19907;-45
2023/09/20 11:30:04;;;;;;;;;;;19.90;99.90;;;;;;5134495;27;19907;-45
2023/09/20 11:32:29;;;;;;;;;;;20.10;99.90;;;;;;5141752;27;20010;-45
2023/09/20 11:34:55;;;;;;;;;;;20.10;99.90;;;;;;5136108;27;20011;-45
2023/09/20 11:37:22;;;;;;;;;;;20.20;99.90;;;;;;5133699;27;19976;-44
2023/09/20 11:39:48;;;;;;;;;;;20.20;99.90;;;;;;5134097;27;19933;-44
2023/09/20 11:42:26;;;;;;;;;;;20.30;99.90;;;;;;5134640;27;19907;-45
2023/09/20 11:44:56;;;;;;;;;;;20.30;99.90;;;;;;5134779;27;19911;-44
2023/09/20 11:47:21;;;;;;;;;;;20.40;99.90;;;;;;5134540;27;19914;-44
2023/09/20 11:49:47;;;;;;;;;;;20.40;99.90;;;;;;5134481;27;19907;-45
2023/09/20 11:52:20;;;;;;;;;;;20.30;99.90;;;;;;5146987;27;19910;-45
2023/09/20 11:54:47;;;;;;;;;;;20.40;99.90;;;;;;5150913;27;19925;-45
2023/09/20 11:57:16;;;;;;;;;;;20.60;99.90;;;;;;5139353;27;19912;-44
2023/09/20 11:59:43;;;;;;;;;;;20.70;99.90;;;;;;5148225;27;19914;-46
2023/09/20 12:02:09;;;;;;;;;;;20.80;99.90;;;;;;5154369;27;19911;-45
2023/09/20 12:04:35;;;;;;;;;;;21.00;99.90;;;;;;5134036;27;19913;-45
2023/09/20 12:07:01;;;;;;;;;;;21.10;99.90;;;;;;5133816;27;19907;-45
2023/09/20 12:09:27;;;;;;;;;;;21.20;99.90;;;;;;5133587;27;19908;-44
2023/09/20 12:11:52;;;;;;;;;;;21.20;99.90;;;;;;5134053;27;20320;-44
2023/09/20 12:14:18;;;;;;;;;;;21.30;99.90;;;;;;5133989;27;19919;-46
2023/09/20 12:16:47;;;;;;;;;;;21.30;99.90;;;;;;5133912;27;19907;-45
2023/09/20 12:19:14;;;;;;;;;;;21.30;99.90;;;;;;5133851;27;19907;-44
2023/09/20 12:21:39;;;;;;;;;;;21.40;99.90;;;;;;5133797;27;19908;-45
2023/09/20 12:24:05;;;;;;;;;;;21.40;99.90;;;;;;5133783;27;20437;-43
2023/09/20 12:26:30;;;;;;;;;;;21.50;99.90;;;;;;5140665;27;19915;-43
2023/09/20 12:28:56;;;;;;;;;;;21.60;99.90;;;;;;5140906;27;20378;-44
2023/09/20 12:31:23;;;;;;;;;;;21.50;99.90;;;;;;5153395;27;19911;-46
2023/09/20 12:33:50;;;;;;;;;;;21.60;99.90;;;;;;5153793;27;19930;-45
2023/09/20 12:36:16;;;;;;;;;;;21.50;99.90;;;;;;5154084;27;19907;-45
2023/09/20 12:38:42;;;;;;;;;;;21.40;99.90;;;;;;5153537;27;20368;-44
2023/09/20 12:41:08;;;;;;;;;;;21.40;99.90;;;;;;5153478;27;19907;-46
2023/09/20 12:43:35;;;;;;;;;;;21.60;99.90;;;;;;5154838;27;19907;-45
2023/09/20 12:46:01;;;;;;;;;;;21.60;99.90;;;;;;5154435;27;19907;-44
2023/09/20 12:48:27;;;;;;;;;;;21.50;99.90;;;;;;5154466;27;19911;-44
2023/09/20 12:50:52;;;;;;;;;;;21.50;99.90;;;;;;5154140;27;19959;-44
2023/09/20 12:53:18;;;;;;;;;;;21.50;99.90;;;;;;5144355;27;20005;-45
2023/09/20 12:55:43;;;;;;;;;;;21.60;99.90;;;;;;5141337;27;19907;-46
2023/09/20 12:58:10;;;;;;;;;;;21.70;99.90;;;;;;5146472;27;20331;-46
2023/09/20 13:00:36;;;;;;;;;;;21.80;99.90;;;;;;5138532;27;19908;-45
2023/09/20 13:03:05;;;;;;;;;;;21.90;99.90;;;;;;5133507;27;19967;-45
2023/09/20 13:05:30;;;;;;;;;;;22.10;99.90;;;;;;5133261;28;20366;-45
2023/09/20 13:07:57;;;;;;;;;;;22.30;99.90;;;;;;5133625;28;19914;-45
2023/09/20 13:10:22;;;;;;;;;;;22.50;99.90;;;;;;5134363;27;19912;-44
2023/09/20 13:12:48;;;;;;;;;;;22.50;99.90;;;;;;5133091;28;19968;-44
2023/09/20 13:15:14;;;;;;;;;;;22.60;99.90;;;;;;5132447;28;19919;-44
2023/09/20 13:17:43;;;;;;;;;;;22.50;99.90;;;;;;5132260;28;19912;-46
2023/09/20 13:20:10;;;;;;;;;;;22.40;99.90;;;;;;5135635;27;19934;-45
2023/09/20 13:22:36;;;;;;;;;;;22.30;99.90;;;;;;5136493;27;19930;-45
2023/09/20 13:25:02;;;;;;;;;;;22.50;99.90;;;;;;5136882;27;20366;-46
2023/09/20 13:27:27;;;;;;;;;;;22.90;99.90;;;;;;5136800;27;19908;-45
2023/09/20 13:29:54;;;;;;;;;;;23.20;99.90;;;;;;5136847;27;19912;-46
2023/09/20 13:32:19;;;;;;;;;;;23.30;99.90;;;;;;5136233;27;20381;-46
2023/09/20 13:34:45;;;;;;;;;;;23.30;99.90;;;;;;5136891;27;20008;-44
2023/09/20 13:37:12;;;;;;;;;;;23.30;99.90;;;;;;5136962;27;20357;-45
2023/09/20 13:39:42;;;;;;;;;;;23.30;99.90;;;;;;5136792;27;19957;-45
2023/09/20 13:42:09;;;;;;;;;;;23.50;99.90;;;;;;5136082;27;20376;-45
2023/09/20 13:44:35;;;;;;;;;;;23.60;99.90;;;;;;5136192;27;19918;-46
2023/09/20 13:47:06;;;;;;;;;;;23.50;99.90;;;;;;5136684;27;19907;-46
2023/09/20 13:49:34;;;;;;;;;;;23.30;99.90;;;;;;5136296;27;19968;-46
2023/09/20 13:51:59;;;;;;;;;;;23.20;99.90;;;;;;5136002;27;19915;-45
2023/09/20 13:54:25;;;;;;;;;;;23.10;99.90;;;;;;5135637;27;20185;-45
2023/09/20 13:56:50;;;;;;;;;;;23.10;99.90;;;;;;5135881;27;19911;-45
2023/09/20 13:59:16;;;;;;;;;;;23.40;99.90;;;;;;5136094;27;19990;-47
2023/09/20 14:01:42;;;;;;;;;;;23.40;99.90;;;;;;5136041;27;20077;-46
2023/09/20 14:04:07;;;;;;;;;;;23.20;99.90;;;;;;5135623;27;19918;-46
2023/09/20 14:06:33;;;;;;;;;;;23.10;99.90;;;;;;5136355;27;20243;-45
2023/09/20 14:08:59;;;;;;;;;;;23.00;99.90;;;;;;5136226;27;19915;-47
2023/09/20 14:11:24;;;;;;;;;;;22.90;99.90;;;;;;5136019;27;19907;-48
2023/09/20 14:13:50;;;;;;;;;;;22.80;99.90;;;;;;5136382;27;19919;-46
2023/09/20 14:16:17;;;;;;;;;;;22.70;99.90;;;;;;5136136;27;19997;-45
2023/09/20 14:18:42;;;;;;;;;;;22.70;99.90;;;;;;5137343;27;19964;-47
2023/09/20 14:21:09;;;;;;;;;;;22.80;99.90;;;;;;5147207;27;19911;-44
2023/09/20 14:23:35;;;;;;;;;;;23.10;99.90;;;;;;5131971;27;19908;-44
2023/09/20 14:26:01;;;;;;;;;;;23.70;99.90;;;;;;5135902;27;19911;-46
2023/09/20 14:28:26;;;;;;;;;;;24.20;99.90;;;;;;5135463;27;20384;-44
2023/09/20 14:30:53;;;;;;;;;;;24.60;99.90;;;;;;5134995;27;19936;-48
2023/09/20 14:33:21;;;;;;;;;;;24.60;99.90;;;;;;5135021;27;20373;-45
2023/09/20 14:35:46;;;;;;;;;;;24.40;99.90;;;;;;5136062;27;19908;-47
2023/09/20 14:38:12;;;;;;;;;;;24.00;99.90;;;;;;5135446;27;19918;-48
2023/09/20 14:40:38;;;;;;;;;;;23.80;99.90;;;;;;5135522;27;20281;-45
2023/09/20 14:43:03;;;;;;;;;;;23.50;99.90;;;;;;5126089;27;20366;-46
2023/09/20 14:45:29;;;;;;;;;;;23.30;99.90;;;;;;5124790;27;20286;-46
2023/09/20 14:47:56;;;;;;;;;;;23.20;99.90;;;;;;5126818;27;19911;-46
2023/09/20 14:50:22;;;;;;;;;;;23.00;99.90;;;;;;5135068;27;19919;-46
2023/09/20 14:52:47;;;;;;;;;;;22.90;99.90;;;;;;5124475;27;20259;-45
2023/09/20 14:55:15;;;;;;;;;;;22.90;99.90;;;;;;5114100;28;19961;-44